createdAt,value
2022-12-27T00:00:25.052Z,1.31
2022-12-27T00:01:00.856Z,1.30
2022-12-27T00:01:36.007Z,1.29
2022-12-27T00:02:08.239Z,1.25
2022-12-27T00:02:40.543Z,1.26
2022-12-27T00:03:15.320Z,1.26
2022-12-27T00:03:48.556Z,1.29
2022-12-27T00:04:20.782Z,1.32
2022-12-27T00:04:56.949Z,1.35
2022-12-27T00:05:29.130Z,1.32
2022-12-27T00:06:01.257Z,1.33
2022-12-27T00:06:36.108Z,1.33
2022-12-27T00:07:08.508Z,1.34
2022-12-27T00:07:40.681Z,1.30
2022-12-27T00:08:15.988Z,1.30
2022-12-27T00:08:48.394Z,1.29
2022-12-27T00:09:20.552Z,1.31
2022-12-27T00:09:56.467Z,1.33
2022-12-27T00:10:31.148Z,1.35
2022-12-27T00:11:08.096Z,1.37
2022-12-27T00:11:42.923Z,1.40
2022-12-27T00:12:15.044Z,1.42
2022-12-27T00:12:47.143Z,1.42
2022-12-27T00:13:19.229Z,1.43
2022-12-27T00:13:54.093Z,1.45
2022-12-27T00:14:26.179Z,1.45
2022-12-27T00:14:58.351Z,1.47
2022-12-27T00:15:33.204Z,1.49
2022-12-27T00:16:06.557Z,1.49
2022-12-27T00:16:39.384Z,1.49
2022-12-27T00:17:11.506Z,1.50
2022-12-27T00:17:46.302Z,1.51
2022-12-27T00:18:18.390Z,1.52
2022-12-27T00:18:52.460Z,1.53
2022-12-27T00:19:27.152Z,1.54
2022-12-27T00:19:59.367Z,1.56
2022-12-27T00:20:31.508Z,1.57
2022-12-27T00:21:09.971Z,1.58
2022-12-27T00:21:42.121Z,1.56
2022-12-27T00:22:14.196Z,1.56
2022-12-27T00:22:48.904Z,1.56
2022-12-27T00:23:21.090Z,1.58
2022-12-27T00:23:55.431Z,1.59
2022-12-27T00:24:30.149Z,1.59
2022-12-27T00:25:02.409Z,1.59
2022-12-27T00:25:42.482Z,1.59
2022-12-27T00:26:17.114Z,1.57
2022-12-27T00:26:49.201Z,1.57
2022-12-27T00:27:26.019Z,1.58
2022-12-27T00:27:58.121Z,1.57
2022-12-27T00:28:31.628Z,1.58
2022-12-27T00:29:06.895Z,1.56
2022-12-27T00:29:38.978Z,1.58
2022-12-27T00:30:14.905Z,1.58
2022-12-27T00:30:49.681Z,1.58
2022-12-27T00:31:23.415Z,1.59
2022-12-27T00:31:55.595Z,1.59
2022-12-27T00:32:30.369Z,1.60
2022-12-27T00:33:02.463Z,1.58
2022-12-27T00:33:36.880Z,1.57
2022-12-27T00:34:11.783Z,1.54
2022-12-27T00:34:43.895Z,1.58
2022-12-27T00:35:16.253Z,1.54
2022-12-27T00:35:50.908Z,1.53
2022-12-27T00:36:25.099Z,1.52
2022-12-27T00:36:57.238Z,1.52
2022-12-27T00:37:34.533Z,1.51
2022-12-27T00:38:06.998Z,1.51
2022-12-27T00:38:39.356Z,1.50
2022-12-27T00:39:14.934Z,1.52
2022-12-27T00:39:47.499Z,1.51
2022-12-27T00:40:19.617Z,1.50
2022-12-27T00:40:56.956Z,1.51
2022-12-27T00:41:29.576Z,1.51
2022-12-27T00:42:01.701Z,1.50
2022-12-27T00:42:36.446Z,1.50
2022-12-27T00:43:08.805Z,1.50
2022-12-27T00:43:41.040Z,1.50
2022-12-27T00:44:13.385Z,1.51
2022-12-27T00:44:48.033Z,1.51
2022-12-27T00:45:20.126Z,1.51
2022-12-27T00:45:52.839Z,1.52
2022-12-27T00:46:27.634Z,1.53
2022-12-27T00:46:59.712Z,1.51
2022-12-27T00:47:31.904Z,1.50
2022-12-27T00:48:06.860Z,1.50
2022-12-27T00:48:39.684Z,1.50
2022-12-27T00:49:11.919Z,1.49
2022-12-27T00:49:46.612Z,1.50
2022-12-27T00:50:23.822Z,1.50
2022-12-27T00:50:59.469Z,1.48
2022-12-27T00:51:36.735Z,1.47
2022-12-27T00:52:08.995Z,1.47
2022-12-27T00:52:41.093Z,1.48
2022-12-27T00:53:15.884Z,1.52
2022-12-27T00:53:49.299Z,1.53
2022-12-27T00:54:21.494Z,1.53
2022-12-27T00:54:56.205Z,1.57
2022-12-27T00:55:28.561Z,1.57
2022-12-27T00:56:07.498Z,1.58
2022-12-27T00:56:42.148Z,1.59
2022-12-27T00:57:16.507Z,1.57
2022-12-27T00:57:48.627Z,1.56
2022-12-27T00:58:22.384Z,1.58
2022-12-27T00:58:57.975Z,1.58
2022-12-27T00:59:31.398Z,1.57
2022-12-27T01:00:09.875Z,1.58
2022-12-27T01:00:45.939Z,1.60
2022-12-27T01:01:20.799Z,1.59
2022-12-27T01:01:53.296Z,1.61
2022-12-27T01:02:28.911Z,1.62
2022-12-27T01:03:01.523Z,1.61
2022-12-27T01:03:34.398Z,1.63
2022-12-27T01:04:09.532Z,1.62
2022-12-27T01:04:41.636Z,1.61
2022-12-27T01:05:14.459Z,1.62
2022-12-27T01:05:49.243Z,1.63
2022-12-27T01:06:23.135Z,1.63
2022-12-27T01:06:55.235Z,1.63
2022-12-27T01:07:30.348Z,1.62
2022-12-27T01:08:02.428Z,1.62
2022-12-27T01:08:35.271Z,1.61
2022-12-27T01:09:10.006Z,1.57
2022-12-27T01:09:42.199Z,1.59
2022-12-27T01:10:14.808Z,1.59
2022-12-27T01:10:49.781Z,1.61
2022-12-27T01:11:26.228Z,1.60
2022-12-27T01:12:00.908Z,1.59
2022-12-27T01:12:33.036Z,1.59
2022-12-27T01:13:05.190Z,1.58
2022-12-27T01:13:41.134Z,1.57
2022-12-27T01:14:13.304Z,1.54
2022-12-27T01:14:45.885Z,1.53
2022-12-27T01:15:20.595Z,1.51
2022-12-27T01:15:52.795Z,1.50
2022-12-27T01:16:26.284Z,1.51
2022-12-27T01:17:01.112Z,1.52
2022-12-27T01:17:33.268Z,1.52
2022-12-27T01:18:08.392Z,1.51
2022-12-27T01:18:40.551Z,1.51
2022-12-27T01:19:15.260Z,1.50
2022-12-27T01:19:47.481Z,1.50
2022-12-27T01:20:19.582Z,1.48
2022-12-27T01:20:54.418Z,1.48
2022-12-27T01:21:28.966Z,1.48
2022-12-27T01:22:01.067Z,1.46
2022-12-27T01:22:33.142Z,1.46
2022-12-27T01:23:07.883Z,1.46
2022-12-27T01:23:40.961Z,1.43
2022-12-27T01:24:13.160Z,1.43
2022-12-27T01:24:47.823Z,1.42
2022-12-27T01:25:19.927Z,1.40
2022-12-27T01:26:00.137Z,1.38
2022-12-27T01:26:38.396Z,1.42
2022-12-27T01:27:11.143Z,1.38
2022-12-27T01:27:43.269Z,1.37
2022-12-27T01:28:18.055Z,1.35
2022-12-27T01:28:50.614Z,1.34
2022-12-27T01:29:22.772Z,1.35
2022-12-27T01:29:57.503Z,1.35
2022-12-27T01:30:29.643Z,1.33
2022-12-27T01:31:05.140Z,1.35
2022-12-27T01:31:39.906Z,1.33
2022-12-27T01:32:12.066Z,1.35
2022-12-27T01:32:44.188Z,1.35
2022-12-27T01:33:16.281Z,1.34
2022-12-27T01:33:51.184Z,1.33
2022-12-27T01:34:23.414Z,1.32
2022-12-27T01:34:55.513Z,1.34
2022-12-27T01:35:30.211Z,1.33
2022-12-27T01:36:09.649Z,1.33
2022-12-27T01:36:41.971Z,1.30
2022-12-27T01:37:16.674Z,1.31
2022-12-27T01:37:48.880Z,1.31
2022-12-27T01:38:21.017Z,1.33
2022-12-27T01:38:55.813Z,1.32
2022-12-27T01:39:28.023Z,1.31
2022-12-27T01:40:00.141Z,1.32
2022-12-27T01:40:32.817Z,1.30
2022-12-27T01:41:27.819Z,1.31
2022-12-27T01:42:17.573Z,1.30
2022-12-27T01:42:55.761Z,1.29
2022-12-27T01:43:38.195Z,1.28
2022-12-27T01:44:51.845Z,1.26
2022-12-27T01:45:27.900Z,1.24
2022-12-27T01:46:00.444Z,1.27
2022-12-27T01:46:35.116Z,1.28
2022-12-27T01:47:16.179Z,1.28
2022-12-27T01:47:59.406Z,1.30
2022-12-27T01:48:33.750Z,1.29
2022-12-27T01:49:05.941Z,1.30
2022-12-27T01:49:38.509Z,1.32
2022-12-27T01:50:19.056Z,1.34
2022-12-27T01:50:55.399Z,1.35
2022-12-27T01:51:27.611Z,1.35
2022-12-27T01:51:59.768Z,1.35
2022-12-27T01:52:39.197Z,1.38
2022-12-27T01:53:16.387Z,1.38
2022-12-27T01:53:55.204Z,1.40
2022-12-27T01:54:27.329Z,1.37
2022-12-27T01:55:07.611Z,1.37
2022-12-27T01:55:47.983Z,1.37
2022-12-27T01:56:22.676Z,1.37
2022-12-27T01:56:55.862Z,1.34
2022-12-27T01:57:32.070Z,1.34
2022-12-27T01:58:09.718Z,1.35
2022-12-27T01:58:48.477Z,1.34
2022-12-27T01:59:20.592Z,1.34
2022-12-27T01:59:52.752Z,1.34
2022-12-27T02:00:27.526Z,1.37
2022-12-27T02:00:59.809Z,1.38
2022-12-27T02:01:35.585Z,1.39
2022-12-27T02:02:08.491Z,1.41
2022-12-27T02:02:43.766Z,1.41
2022-12-27T02:03:20.700Z,1.43
2022-12-27T02:03:56.300Z,1.42
2022-12-27T02:04:34.707Z,1.44
2022-12-27T02:05:08.109Z,1.43
2022-12-27T02:05:41.928Z,1.45
2022-12-27T02:06:17.929Z,1.45
2022-12-27T02:06:51.380Z,1.46
2022-12-27T02:07:31.645Z,1.47
2022-12-27T02:08:21.418Z,1.45
2022-12-27T02:08:58.193Z,1.43
2022-12-27T02:09:36.554Z,1.44
2022-12-27T02:10:11.273Z,1.43
2022-12-27T02:10:44.239Z,1.46
2022-12-27T02:11:42.451Z,1.47
2022-12-27T02:12:18.932Z,1.44
2022-12-27T02:12:53.636Z,1.45
2022-12-27T02:13:26.406Z,1.47
2022-12-27T02:14:01.399Z,1.49
2022-12-27T02:14:35.696Z,1.48
2022-12-27T02:15:11.698Z,1.49
2022-12-27T02:15:49.610Z,1.48
2022-12-27T02:16:21.763Z,1.48
2022-12-27T02:16:55.563Z,1.49
2022-12-27T02:17:33.456Z,1.49
2022-12-27T02:18:05.673Z,1.49
2022-12-27T02:18:37.849Z,1.48
2022-12-27T02:19:27.424Z,1.48
2022-12-27T02:20:06.430Z,1.46
2022-12-27T02:20:53.972Z,1.46
2022-12-27T02:21:59.785Z,1.44
2022-12-27T02:23:13.644Z,1.44
2022-12-27T02:24:03.219Z,1.44
2022-12-27T02:25:00.736Z,1.43
2022-12-27T02:25:55.792Z,1.43
2022-12-27T02:26:53.842Z,1.43
2022-12-27T02:27:44.457Z,1.46
2022-12-27T02:28:25.027Z,1.43
2022-12-27T02:29:12.425Z,1.43
2022-12-27T02:29:57.810Z,1.45
2022-12-27T02:30:34.915Z,1.46
2022-12-27T02:31:15.176Z,1.47
2022-12-27T02:31:56.699Z,1.48
2022-12-27T02:32:37.503Z,1.48
2022-12-27T02:33:14.100Z,1.48
2022-12-27T02:33:49.056Z,1.48
2022-12-27T02:34:29.229Z,1.48
2022-12-27T02:35:19.086Z,1.51
2022-12-27T02:36:00.687Z,1.52
2022-12-27T02:36:37.213Z,1.52
2022-12-27T02:37:12.547Z,1.52
2022-12-27T02:37:51.884Z,1.55
2022-12-27T02:38:29.597Z,1.57
2022-12-27T02:39:03.172Z,1.58
2022-12-27T02:39:42.873Z,1.58
2022-12-27T02:40:35.375Z,1.57
2022-12-27T02:41:26.973Z,1.57
2022-12-27T02:42:15.521Z,1.57
2022-12-27T02:43:04.430Z,1.56
2022-12-27T02:43:51.706Z,1.54
2022-12-27T02:44:41.761Z,1.53
2022-12-27T02:45:36.662Z,1.53
2022-12-27T02:46:30.163Z,1.54
2022-12-27T02:47:17.968Z,1.54
2022-12-27T02:48:05.263Z,1.53
2022-12-27T02:48:52.401Z,1.54
2022-12-27T02:49:41.277Z,1.56
2022-12-27T02:50:31.311Z,1.55
2022-12-27T02:51:32.550Z,1.52
2022-12-27T02:52:32.223Z,1.52
2022-12-27T02:53:15.498Z,1.52
2022-12-27T02:54:01.954Z,1.50
2022-12-27T02:55:03.456Z,1.52
2022-12-27T02:56:15.785Z,1.53
2022-12-27T02:57:11.421Z,1.51
2022-12-27T02:57:53.741Z,1.51
2022-12-27T02:58:35.405Z,1.53
2022-12-27T02:59:24.223Z,1.54
2022-12-27T03:00:23.588Z,1.57
2022-12-27T03:01:19.302Z,1.55
2022-12-27T03:02:32.688Z,1.54
2022-12-27T03:03:24.068Z,1.54
2022-12-27T03:04:13.671Z,1.54
2022-12-27T03:05:05.667Z,1.53
2022-12-27T03:06:10.229Z,1.54
2022-12-27T03:07:17.146Z,1.55
2022-12-27T03:07:57.225Z,1.54
2022-12-27T03:08:35.694Z,1.56
2022-12-27T03:09:34.655Z,1.58
2022-12-27T03:10:29.936Z,1.53
2022-12-27T03:11:18.133Z,1.51
2022-12-27T03:12:09.441Z,1.52
2022-12-27T03:13:15.549Z,1.56
2022-12-27T03:14:12.174Z,1.53
2022-12-27T03:15:03.579Z,1.53
2022-12-27T03:15:59.396Z,1.55
2022-12-27T03:16:37.997Z,1.54
2022-12-27T03:17:18.937Z,1.55
2022-12-27T03:18:02.694Z,1.57
2022-12-27T03:18:44.624Z,1.56
2022-12-27T03:19:47.754Z,1.55
2022-12-27T03:20:35.083Z,1.53
2022-12-27T03:21:23.776Z,1.53
2022-12-27T03:22:19.689Z,1.54
2022-12-27T03:23:10.482Z,1.53
2022-12-27T03:24:00.078Z,1.54
2022-12-27T03:24:51.595Z,1.53
2022-12-27T03:25:31.354Z,1.52
2022-12-27T03:26:06.047Z,1.56
2022-12-27T03:26:41.335Z,1.57
2022-12-27T03:27:20.737Z,1.59
2022-12-27T03:28:10.527Z,1.58
2022-12-27T03:29:00.844Z,1.58
2022-12-27T03:29:47.974Z,1.57
2022-12-27T03:30:37.643Z,1.56
2022-12-27T03:31:33.068Z,1.61
2022-12-27T03:32:23.775Z,1.61
2022-12-27T03:33:17.076Z,1.62
2022-12-27T03:33:51.257Z,1.63
2022-12-27T03:34:32.246Z,1.65
2022-12-27T03:35:12.754Z,1.66
2022-12-27T03:36:06.363Z,1.67
2022-12-27T03:36:54.442Z,1.67
2022-12-27T03:37:47.094Z,1.69
2022-12-27T03:38:19.481Z,1.68
2022-12-27T03:38:56.296Z,1.71
2022-12-27T03:39:37.651Z,1.72
2022-12-27T03:40:18.286Z,1.73
2022-12-27T03:41:12.238Z,1.73
2022-12-27T03:42:04.089Z,1.72
2022-12-27T03:42:55.393Z,1.71
2022-12-27T03:43:27.982Z,1.70
2022-12-27T03:44:22.753Z,1.72
2022-12-27T03:44:55.324Z,1.73
2022-12-27T03:45:47.875Z,1.75
2022-12-27T03:46:36.718Z,1.75
2022-12-27T03:47:33.456Z,1.76
2022-12-27T03:48:06.750Z,1.74
2022-12-27T03:48:49.954Z,1.77
2022-12-27T03:49:32.652Z,1.79
2022-12-27T03:50:09.039Z,1.81
2022-12-27T03:50:47.010Z,1.82
2022-12-27T03:51:23.224Z,1.83
2022-12-27T03:52:06.616Z,1.84
2022-12-27T03:52:45.348Z,1.86
2022-12-27T03:53:23.752Z,1.86
2022-12-27T03:54:08.231Z,1.87
2022-12-27T03:54:43.751Z,1.88
2022-12-27T03:55:16.851Z,1.89
2022-12-27T03:55:53.986Z,1.90
2022-12-27T03:56:26.289Z,1.92
2022-12-27T03:57:01.248Z,1.95
2022-12-27T03:57:36.048Z,1.95
2022-12-27T03:58:08.288Z,1.98
2022-12-27T03:58:40.466Z,2.00
2022-12-27T03:59:15.452Z,2.01
2022-12-27T03:59:48.405Z,2.02
2022-12-27T04:00:20.682Z,2.04
2022-12-27T04:00:55.422Z,2.06
2022-12-27T04:01:30.289Z,2.07
2022-12-27T04:02:06.256Z,2.08
2022-12-27T04:02:38.684Z,2.09
2022-12-27T04:03:11.027Z,2.10
2022-12-27T04:03:46.317Z,2.11
2022-12-27T04:04:19.549Z,2.13
2022-12-27T04:04:51.873Z,2.15
2022-12-27T04:05:26.631Z,2.17
2022-12-27T04:05:58.727Z,2.18
2022-12-27T04:06:30.868Z,2.19
2022-12-27T04:07:05.942Z,2.20
2022-12-27T04:07:38.061Z,2.23
2022-12-27T04:08:25.269Z,2.24
2022-12-27T04:09:12.416Z,2.25
2022-12-27T04:09:59.578Z,2.27
2022-12-27T04:10:46.771Z,2.30
2022-12-27T04:11:34.074Z,2.30
2022-12-27T04:12:21.924Z,2.31
2022-12-27T04:13:09.557Z,2.31
2022-12-27T04:13:56.760Z,2.33
2022-12-27T04:14:43.922Z,2.32
2022-12-27T04:15:31.272Z,2.32
2022-12-27T04:16:19.607Z,2.32
2022-12-27T04:17:09.363Z,2.32
2022-12-27T04:17:56.568Z,2.32
2022-12-27T04:18:43.687Z,2.30
2022-12-27T04:19:30.853Z,2.33
2022-12-27T04:20:18.337Z,2.31
2022-12-27T04:21:05.448Z,2.31
2022-12-27T04:21:52.597Z,2.30
2022-12-27T04:22:39.711Z,2.29
2022-12-27T04:23:26.951Z,2.28
2022-12-27T04:24:14.081Z,2.26
2022-12-27T04:25:03.838Z,2.25
2022-12-27T04:25:51.371Z,2.24
2022-12-27T04:26:38.558Z,2.24
2022-12-27T04:27:25.682Z,2.25
2022-12-27T04:28:12.817Z,2.24
2022-12-27T04:28:59.977Z,2.24
2022-12-27T04:29:47.087Z,2.25
2022-12-27T04:30:34.268Z,2.25
2022-12-27T04:31:21.467Z,2.26
2022-12-27T04:32:11.316Z,2.25
2022-12-27T04:32:58.476Z,2.24
2022-12-27T04:33:45.659Z,2.24
2022-12-27T04:34:32.830Z,2.25
2022-12-27T04:35:08.739Z,2.24
2022-12-27T04:35:40.856Z,2.28
2022-12-27T04:36:13.382Z,2.29
2022-12-27T04:36:45.691Z,2.31
2022-12-27T04:37:22.465Z,2.33
2022-12-27T04:37:54.594Z,2.33
2022-12-27T04:38:26.703Z,2.34
2022-12-27T04:39:01.411Z,2.36
2022-12-27T04:39:34.500Z,2.35
2022-12-27T04:40:23.281Z,2.38
2022-12-27T04:41:10.408Z,2.36
2022-12-27T04:41:57.635Z,2.36
2022-12-27T04:42:44.811Z,2.34
2022-12-27T04:43:31.931Z,2.32
2022-12-27T04:44:19.270Z,2.30
2022-12-27T04:45:11.634Z,2.28
2022-12-27T04:46:02.205Z,2.24
2022-12-27T04:46:49.599Z,2.25
2022-12-27T04:47:40.160Z,2.24
2022-12-27T04:48:29.187Z,2.25
2022-12-27T04:49:16.342Z,2.28
2022-12-27T04:50:03.753Z,2.28
2022-12-27T04:50:50.733Z,2.26
2022-12-27T04:51:37.892Z,2.28
2022-12-27T04:52:29.776Z,2.31
2022-12-27T04:53:22.827Z,2.30
2022-12-27T04:54:09.942Z,2.29
2022-12-27T04:55:00.291Z,2.31
2022-12-27T04:55:32.432Z,2.31
2022-12-27T04:56:05.654Z,2.34
2022-12-27T04:56:40.308Z,2.34
2022-12-27T04:57:12.389Z,2.37
2022-12-27T04:57:44.561Z,2.39
2022-12-27T04:58:19.292Z,2.41
2022-12-27T04:59:06.222Z,2.43
2022-12-27T04:59:53.380Z,2.42
2022-12-27T05:00:44.071Z,2.42
2022-12-27T05:01:31.371Z,2.42
2022-12-27T05:02:03.856Z,2.44
2022-12-27T05:02:38.969Z,2.45
2022-12-27T05:03:17.455Z,2.46
2022-12-27T05:03:53.427Z,2.46
2022-12-27T05:04:25.988Z,2.47
2022-12-27T05:04:58.872Z,2.49
2022-12-27T05:05:33.872Z,2.50
2022-12-27T05:06:07.397Z,2.50
2022-12-27T05:06:39.550Z,2.52
2022-12-27T05:07:29.336Z,2.54
2022-12-27T05:08:17.102Z,2.52
2022-12-27T05:09:04.503Z,2.51
2022-12-27T05:09:51.788Z,2.50
2022-12-27T05:10:39.677Z,2.51
2022-12-27T05:11:26.949Z,2.52
2022-12-27T05:12:14.112Z,2.49
2022-12-27T05:13:01.350Z,2.50
2022-12-27T05:13:48.495Z,2.49
2022-12-27T05:14:23.172Z,2.51
2022-12-27T05:14:55.286Z,2.51
2022-12-27T05:15:27.455Z,2.52
2022-12-27T05:15:59.588Z,2.54
2022-12-27T05:16:37.713Z,2.54
2022-12-27T05:17:09.821Z,2.55
2022-12-27T05:17:44.478Z,2.56
2022-12-27T05:18:16.736Z,2.55
2022-12-27T05:18:51.539Z,2.56
2022-12-27T05:19:23.836Z,2.56
2022-12-27T05:19:55.961Z,2.56
2022-12-27T05:20:28.065Z,2.59
2022-12-27T05:21:05.723Z,2.60
2022-12-27T05:21:38.656Z,2.60
2022-12-27T05:22:25.773Z,2.61
2022-12-27T05:23:12.892Z,2.59
2022-12-27T05:24:05.168Z,2.58
2022-12-27T05:24:52.868Z,2.56
2022-12-27T05:25:38.468Z,2.55
2022-12-27T05:26:13.240Z,2.56
2022-12-27T05:26:45.340Z,2.58
2022-12-27T05:27:17.867Z,2.59
2022-12-27T05:27:52.509Z,2.61
2022-12-27T05:28:24.763Z,2.61
2022-12-27T05:28:59.203Z,2.66
2022-12-27T05:29:36.104Z,2.67
2022-12-27T05:30:09.542Z,2.66
2022-12-27T05:30:43.607Z,2.68
2022-12-27T05:31:18.429Z,2.69
2022-12-27T05:31:50.545Z,2.70
2022-12-27T05:32:22.675Z,2.71
2022-12-27T05:32:57.530Z,2.74
2022-12-27T05:33:34.471Z,2.74
2022-12-27T05:34:06.973Z,2.75
2022-12-27T05:34:39.115Z,2.78
2022-12-27T05:35:13.815Z,2.79
2022-12-27T05:35:46.005Z,2.79
2022-12-27T05:36:18.575Z,2.81
2022-12-27T05:36:53.866Z,2.83
2022-12-27T05:37:25.988Z,2.84
2022-12-27T05:37:58.108Z,2.85
2022-12-27T05:38:32.790Z,2.86
2022-12-27T05:39:04.906Z,2.87
2022-12-27T05:39:37.077Z,2.88
2022-12-27T05:40:13.763Z,2.89
2022-12-27T05:40:45.847Z,2.89
2022-12-27T05:41:18.315Z,2.91
2022-12-27T05:41:52.970Z,2.93
2022-12-27T05:42:25.107Z,2.93
2022-12-27T05:42:59.114Z,2.93
2022-12-27T05:43:34.690Z,2.94
2022-12-27T05:44:07.536Z,2.94
2022-12-27T05:44:39.926Z,2.95
2022-12-27T05:45:15.010Z,2.95
2022-12-27T05:45:47.081Z,2.95
2022-12-27T05:46:23.947Z,2.96
2022-12-27T05:46:56.343Z,2.96
2022-12-27T05:47:28.490Z,2.97
2022-12-27T05:48:03.247Z,2.98
2022-12-27T05:48:38.686Z,2.99
2022-12-27T05:49:10.773Z,2.99
2022-12-27T05:49:42.874Z,3.00
2022-12-27T05:50:15.028Z,3.02
2022-12-27T05:50:49.704Z,3.03
2022-12-27T05:51:22.258Z,3.03
2022-12-27T05:51:54.372Z,3.03
2022-12-27T05:52:29.296Z,3.04
2022-12-27T05:53:02.038Z,3.05
2022-12-27T05:53:34.277Z,3.07
2022-12-27T05:54:09.058Z,3.08
2022-12-27T05:54:41.164Z,3.09
2022-12-27T05:55:13.329Z,3.10
2022-12-27T05:55:48.053Z,3.10
2022-12-27T05:56:21.679Z,3.12
2022-12-27T05:56:56.794Z,3.13
2022-12-27T05:57:29.138Z,3.13
2022-12-27T05:58:01.279Z,3.13
2022-12-27T05:58:36.560Z,3.17
2022-12-27T05:59:08.787Z,3.17
2022-12-27T05:59:40.916Z,3.17
2022-12-27T06:00:14.340Z,3.18
2022-12-27T06:00:49.788Z,3.19
2022-12-27T06:01:22.163Z,3.17
2022-12-27T06:01:54.484Z,3.18
2022-12-27T06:02:26.916Z,3.18
2022-12-27T06:03:01.794Z,3.17
2022-12-27T06:03:36.612Z,3.17
2022-12-27T06:04:09.954Z,3.18
2022-12-27T06:04:44.865Z,3.17
2022-12-27T06:05:17.007Z,3.16
2022-12-27T06:05:49.169Z,3.14
2022-12-27T06:06:23.854Z,3.15
2022-12-27T06:06:56.266Z,3.15
2022-12-27T06:07:28.364Z,3.15
2022-12-27T06:08:00.449Z,3.16
2022-12-27T06:08:35.879Z,3.19
2022-12-27T06:09:08.005Z,3.18
2022-12-27T06:09:40.149Z,3.19
2022-12-27T06:10:12.278Z,3.20
2022-12-27T06:10:47.095Z,3.21
2022-12-27T06:11:19.914Z,3.22
2022-12-27T06:11:52.114Z,3.21
2022-12-27T06:12:26.835Z,3.22
2022-12-27T06:13:00.397Z,3.23
2022-12-27T06:13:32.646Z,3.23
2022-12-27T06:14:07.291Z,3.24
2022-12-27T06:14:39.386Z,3.23
2022-12-27T06:15:12.103Z,3.25
2022-12-27T06:15:46.789Z,3.23
2022-12-27T06:16:20.175Z,3.24
2022-12-27T06:16:52.390Z,3.24
2022-12-27T06:17:27.101Z,3.26
2022-12-27T06:18:00.388Z,3.24
2022-12-27T06:18:36.357Z,3.25
2022-12-27T06:19:13.644Z,3.25
2022-12-27T06:19:45.761Z,3.24
2022-12-27T06:20:18.686Z,3.26
2022-12-27T06:20:53.332Z,3.25
2022-12-27T06:21:25.533Z,3.26
2022-12-27T06:21:57.597Z,3.27
2022-12-27T06:22:32.309Z,3.27
2022-12-27T06:23:04.435Z,3.28
2022-12-27T06:23:39.076Z,3.29
2022-12-27T06:24:13.746Z,3.30
2022-12-27T06:24:45.863Z,3.31
2022-12-27T06:25:17.993Z,3.32
2022-12-27T06:25:50.190Z,3.34
2022-12-27T06:26:27.214Z,3.35
2022-12-27T06:26:59.388Z,3.33
2022-12-27T06:27:31.496Z,3.34
2022-12-27T06:28:06.437Z,3.34
2022-12-27T06:28:38.537Z,3.35
2022-12-27T06:29:13.031Z,3.35
2022-12-27T06:29:47.709Z,3.36
2022-12-27T06:30:20.007Z,3.37
2022-12-27T06:30:52.134Z,3.37
2022-12-27T06:31:27.790Z,3.38
2022-12-27T06:32:00.202Z,3.37
2022-12-27T06:32:32.509Z,3.38
2022-12-27T06:33:07.200Z,3.37
2022-12-27T06:33:39.263Z,3.38
2022-12-27T06:34:14.032Z,3.38
2022-12-27T06:34:48.788Z,3.38
2022-12-27T06:35:20.891Z,3.38
2022-12-27T06:35:53.055Z,3.38
2022-12-27T06:36:27.061Z,3.38
2022-12-27T06:37:01.724Z,3.35
2022-12-27T06:37:33.816Z,3.35
2022-12-27T06:38:05.903Z,3.36
2022-12-27T06:38:41.076Z,3.37
2022-12-27T06:39:13.429Z,3.38
2022-12-27T06:39:45.816Z,3.38
2022-12-27T06:40:22.064Z,3.39
2022-12-27T06:40:54.155Z,3.39
2022-12-27T06:41:26.535Z,3.37
2022-12-27T06:42:01.253Z,3.39
2022-12-27T06:42:33.342Z,3.38
2022-12-27T06:43:05.453Z,3.39
2022-12-27T06:43:40.223Z,3.38
2022-12-27T06:44:12.482Z,3.38
2022-12-27T06:44:44.634Z,3.40
2022-12-27T06:45:19.487Z,3.39
2022-12-27T06:45:56.486Z,3.39
2022-12-27T06:46:28.653Z,3.37
2022-12-27T06:47:03.337Z,3.38
2022-12-27T06:47:35.872Z,3.38
2022-12-27T06:48:08.345Z,3.38
2022-12-27T06:48:40.836Z,3.39
2022-12-27T06:49:18.245Z,3.38
2022-12-27T06:49:50.335Z,3.38
2022-12-27T06:50:22.468Z,3.38
2022-12-27T06:50:57.764Z,3.36
2022-12-27T06:51:30.243Z,3.36
2022-12-27T06:52:02.426Z,3.36
2022-12-27T06:52:37.177Z,3.37
2022-12-27T06:53:09.261Z,3.37
2022-12-27T06:53:41.862Z,3.39
2022-12-27T06:54:16.576Z,3.39
2022-12-27T06:54:48.695Z,3.41
2022-12-27T06:55:21.029Z,3.42
2022-12-27T06:55:55.698Z,3.42
2022-12-27T06:56:27.855Z,3.43
2022-12-27T06:56:59.935Z,3.44
2022-12-27T06:57:34.646Z,3.46
2022-12-27T06:58:06.753Z,3.45
2022-12-27T06:58:39.319Z,3.46
2022-12-27T06:59:14.059Z,3.45
2022-12-27T06:59:52.398Z,3.46
2022-12-27T07:00:26.104Z,3.46
2022-12-27T07:01:07.647Z,3.46
2022-12-27T07:01:40.823Z,3.46
2022-12-27T07:02:13.280Z,3.47
2022-12-27T07:02:48.387Z,3.48
2022-12-27T07:03:20.527Z,3.50
2022-12-27T07:03:54.882Z,3.51
2022-12-27T07:04:32.214Z,3.53
2022-12-27T07:05:05.068Z,3.53
2022-12-27T07:05:38.042Z,3.53
2022-12-27T07:06:14.208Z,3.57
2022-12-27T07:06:46.430Z,3.57
2022-12-27T07:07:18.581Z,3.57
2022-12-27T07:07:54.038Z,3.57
2022-12-27T07:08:26.118Z,3.60
2022-12-27T07:09:00.619Z,3.60
2022-12-27T07:09:35.295Z,3.61
2022-12-27T07:10:08.487Z,3.62
2022-12-27T07:10:40.625Z,3.64
2022-12-27T07:11:14.369Z,3.65
2022-12-27T07:11:49.311Z,3.67
2022-12-27T07:12:21.867Z,3.67
2022-12-27T07:12:54.001Z,3.68
2022-12-27T07:13:28.654Z,3.68
2022-12-27T07:14:00.765Z,3.70
2022-12-27T07:14:32.936Z,3.71
2022-12-27T07:15:09.459Z,3.72
2022-12-27T07:15:41.562Z,3.73
2022-12-27T07:16:16.100Z,3.72
2022-12-27T07:16:52.217Z,3.73
2022-12-27T07:17:24.422Z,3.72
2022-12-27T07:17:56.573Z,3.73
2022-12-27T07:18:29.239Z,3.74
2022-12-27T07:19:04.322Z,3.75
2022-12-27T07:19:38.986Z,3.76
2022-12-27T07:20:12.408Z,3.78
2022-12-27T07:20:47.063Z,3.78
2022-12-27T07:21:22.170Z,3.81
2022-12-27T07:21:54.247Z,3.79
2022-12-27T07:22:29.831Z,3.80
2022-12-27T07:23:01.946Z,3.80
2022-12-27T07:23:34.493Z,3.80
2022-12-27T07:24:10.126Z,3.81
2022-12-27T07:24:42.258Z,3.82
2022-12-27T07:25:14.365Z,3.83
2022-12-27T07:25:49.212Z,3.84
2022-12-27T07:26:24.139Z,3.84
2022-12-27T07:26:56.223Z,3.85
2022-12-27T07:27:30.957Z,3.85
2022-12-27T07:28:03.092Z,3.85
2022-12-27T07:28:35.595Z,3.86
2022-12-27T07:29:10.280Z,3.87
2022-12-27T07:29:45.653Z,3.88
2022-12-27T07:30:18.303Z,3.89
2022-12-27T07:30:53.015Z,3.91
2022-12-27T07:31:29.799Z,3.92
2022-12-27T07:32:02.170Z,3.92
2022-12-27T07:32:36.868Z,3.93
2022-12-27T07:33:09.415Z,3.95
2022-12-27T07:33:42.220Z,3.97
2022-12-27T07:34:17.263Z,3.96
2022-12-27T07:34:51.949Z,3.98
2022-12-27T07:35:24.038Z,3.99
2022-12-27T07:36:02.020Z,4.00
2022-12-27T07:36:37.511Z,4.00
2022-12-27T07:37:09.673Z,4.00
2022-12-27T07:37:44.324Z,4.02
2022-12-27T07:38:16.412Z,4.04
2022-12-27T07:38:48.882Z,4.05
2022-12-27T07:39:23.591Z,4.06
2022-12-27T07:39:56.013Z,4.06
2022-12-27T07:40:28.157Z,4.07
2022-12-27T07:41:03.228Z,4.09
2022-12-27T07:41:36.017Z,4.10
2022-12-27T07:42:08.793Z,4.12
2022-12-27T07:42:45.505Z,4.12
2022-12-27T07:43:17.621Z,4.13
2022-12-27T07:43:49.783Z,4.15
2022-12-27T07:44:24.477Z,4.16
2022-12-27T07:44:56.556Z,4.18
2022-12-27T07:45:28.702Z,4.21
2022-12-27T07:46:07.019Z,4.22
2022-12-27T07:46:40.083Z,4.22
2022-12-27T07:47:14.816Z,4.22
2022-12-27T07:47:46.895Z,4.24
2022-12-27T07:48:19.030Z,4.25
2022-12-27T07:48:56.779Z,4.28
2022-12-27T07:49:29.363Z,4.27
2022-12-27T07:50:05.462Z,4.30
2022-12-27T07:50:40.132Z,4.30
2022-12-27T07:51:13.934Z,4.33
2022-12-27T07:51:48.659Z,4.35
2022-12-27T07:52:20.782Z,4.39
2022-12-27T07:52:52.870Z,4.39
2022-12-27T07:53:27.575Z,4.41
2022-12-27T07:53:59.696Z,4.41
2022-12-27T07:54:34.430Z,4.43
2022-12-27T07:55:07.290Z,4.43
2022-12-27T07:55:39.423Z,4.45
2022-12-27T07:56:21.705Z,4.46
2022-12-27T07:56:57.903Z,4.44
2022-12-27T07:57:30.154Z,4.46
2022-12-27T07:58:04.852Z,4.47
2022-12-27T07:58:38.777Z,4.47
2022-12-27T07:59:12.799Z,4.49
2022-12-27T07:59:47.455Z,4.49
2022-12-27T08:00:20.141Z,4.51
2022-12-27T08:00:53.074Z,4.49
2022-12-27T08:01:50.938Z,4.50
2022-12-27T08:02:23.217Z,4.47
2022-12-27T08:02:55.399Z,4.49
2022-12-27T08:03:30.287Z,4.49
2022-12-27T08:04:02.491Z,4.50
2022-12-27T08:04:39.589Z,4.53
2022-12-27T08:05:14.307Z,4.53
2022-12-27T08:05:47.757Z,4.53
2022-12-27T08:06:26.167Z,4.55
2022-12-27T08:07:02.697Z,4.56
2022-12-27T08:07:35.171Z,4.55
2022-12-27T08:08:09.821Z,4.56
2022-12-27T08:08:45.062Z,4.57
2022-12-27T08:09:31.042Z,4.58
2022-12-27T08:10:03.261Z,4.58
2022-12-27T08:10:36.252Z,4.59
2022-12-27T08:11:11.418Z,4.61
2022-12-27T08:11:43.586Z,4.60
2022-12-27T08:12:16.139Z,4.63
2022-12-27T08:12:51.752Z,4.66
2022-12-27T08:13:23.908Z,4.68
2022-12-27T08:13:56.151Z,4.70
2022-12-27T08:14:30.832Z,4.73
2022-12-27T08:15:02.977Z,4.76
2022-12-27T08:15:35.343Z,4.78
2022-12-27T08:16:13.364Z,4.81
2022-12-27T08:16:45.807Z,4.83
2022-12-27T08:17:20.830Z,4.84
2022-12-27T08:17:55.488Z,4.84